Irvine, PA (16369)

7:53 PM EDT on September 01, 2015 (GMT -0400)
Brokenstraw Airport | | Change Station
CLOSE
Current Station
Personal Weather Station
Location: Pittsfield, PA
Elevation: 1235 ft
Nearby Weather Stations

Elev 1235 ft 41.83 °N, 79.36 °W | Updated 11 seconds ago

Clear
Clear
72.4 °F
Feels Like 71 °F
N
0.0
Wind Variable Wind from NW
Gusts 0.0 mph

Today
High -- | Low -- °F
--% Chance of Precip.
Yesterday
High -- | Low -- °F
Precip. -- in
6:42 AM 7:50 PM
Waning Gibbous, 85% visible
Pressure 30.11 in
Visibility 10.0 miles
Clouds Clear
Heat Index 71 °F
Dew Point 68 °F
Humidity 85%
Rainfall 0.00 in
Snow Depth Not available.
UV 0 out of 12
Pollen 10.40 out of 12
Air Quality Not available.
Flu Activity Not available.
METAR KJHW 012335Z AUTO 29006KT 10SM CLR 23/17 A3011 RMK AO1
Pressure 30.11 in
Visibility 10.0 miles
Clouds Clear
Heat Index 71 °F
Dew Point 68 °F
Humidity 85%
Rainfall 0.00 in
Snow Depth Not available.
UV 0 out of 12
Pollen 10.40 out of 12
Air Quality Not available.
Flu Activity Not available.
METAR KJHW 012335Z AUTO 29006KT 10SM CLR 23/17 A3011 RMK AO1

10-Day Weather Forecast

×

Almanac

Astronomy

Sep. 01, 2015 Rise Set
Actual Time
Civil Twilight
Nautical Twilight
Astronomical Twilight
Moon
Length of Visible Light
Length of Day
Tomorrow will be .
, % of the Moon is Illuminated

Today's Extremes

State Highs State Lows

Community

WunderPhotos

Upload Photos

1,851,643 photos uploaded!

WunderBlogs® & News

Nearby

Air Quality

  Air Quality AQ Index Pollutant
Not available.

Snow Depth

Station Depth Elevation

Earthquake Activity

City Distance Mag. Time & Date
Minimum magnitude displayed is 2.5.

Coastal Water Temperatures

Place Temperature

Stations

Nearby Weather Stations

Station Location Temp. Windchill Dew Point Humidity Wind Precip. Elev Updated Type